Terminal Aerodrome Forecast
Issued by NWS

Current Version | Previous Version | Graphics & Text | Print | Product List | Glossary On
Versions: 1 2 3 4 5 6 7 8 9 10 11 12 13 14 15 16 17 18 19 20
000
FTUS41 KILN 151216 AAA
TAFLUK
TAF AMD
KLUK 151216Z 1512/1612 00000KT P6SM SCT250
     FM151400 VRB03KT P6SM BKN040
     FM152300 26005KT P6SM SCT200
     FM160400 00000KT 4SM BR SCT200
     FM160800 00000KT 1 1/2SM BR SCT150=

USA.gov is the U.S. government's official web portal to all federal, state and local government web resources and services.